Time;durP1;ratioP1;P1;durP2;ratioP2;P2;SDS_P1;SDS_P2;PMS_P1;PMS_P2;Temp;Humidity;BMP_temperature;BMP_pressure;BME280_temperature;BME280_humidity;BME280_pressure;Samples;Min_cycle;Max_cycle;Signal;HPM_P1;HPM_P2
2023/03/22 00:00:56;;;;;;;109.80;42.93;;;5.80;99.90;;;;;;4431229;28;659598;-73
2023/03/22 00:03:44;;;;;;;110.97;45.77;;;5.80;99.90;;;;;;4432200;28;660055;-74
2023/03/22 00:06:32;;;;;;;129.47;48.23;;;5.80;99.90;;;;;;4402742;28;660091;-74
2023/03/22 00:09:19;;;;;;;161.77;52.87;;;5.80;99.90;;;;;;4437854;28;660129;-74
2023/03/22 00:12:07;;;;;;;125.70;49.47;;;5.90;99.90;;;;;;4407270;28;659659;-74
2023/03/22 00:14:54;;;;;;;110.70;44.87;;;5.90;99.90;;;;;;4433335;28;659318;-73
2023/03/22 00:17:43;;;;;;;122.83;50.23;;;5.90;99.90;;;;;;4413140;28;659696;-73
2023/03/22 00:20:35;;;;;;;178.77;61.17;;;5.90;99.90;;;;;;4415813;28;659620;-73
2023/03/22 00:23:23;;;;;;;196.37;66.20;;;5.90;99.90;;;;;;4412664;28;660242;-74
2023/03/22 00:26:11;;;;;;;194.33;65.07;;;5.80;99.90;;;;;;4407236;28;659909;-73
2023/03/22 00:28:58;;;;;;;177.03;60.53;;;5.80;99.90;;;;;;4430622;28;659798;-74
2023/03/22 00:31:45;;;;;;;155.77;60.03;;;5.80;99.90;;;;;;4409081;28;659701;-73
2023/03/22 00:34:33;;;;;;;141.97;58.63;;;5.70;99.90;;;;;;4426083;28;660021;-74
2023/03/22 00:37:22;;;;;;;153.57;57.20;;;5.70;99.90;;;;;;4398922;28;659381;-73
2023/03/22 00:40:11;;;;;;;135.93;54.53;;;5.70;99.90;;;;;;4412966;28;659431;-74
2023/03/22 00:42:58;;;;;;;139.17;55.60;;;5.70;99.90;;;;;;4408510;28;659929;-74
2023/03/22 00:45:45;;;;;;;154.15;56.72;;;5.70;99.90;;;;;;4405815;28;660225;-73
2023/03/22 00:48:33;;;;;;;159.13;58.40;;;5.70;99.90;;;;;;4416905;28;660539;-74
2023/03/22 00:51:20;;;;;;;157.73;57.10;;;5.80;99.90;;;;;;4395201;28;659489;-73
2023/03/22 00:54:09;;;;;;;155.20;56.83;;;5.80;99.90;;;;;;4409241;28;660207;-74
2023/03/22 00:56:56;;;;;;;168.03;59.00;;;5.90;99.90;;;;;;4394590;28;660761;-74
2023/03/22 00:59:44;;;;;;;171.30;61.23;;;5.90;99.90;;;;;;4402914;28;659652;-74
2023/03/22 01:02:32;;;;;;;170.90;58.97;;;5.90;99.90;;;;;;4384423;28;659859;-74
2023/03/22 01:05:20;;;;;;;161.83;60.53;;;5.80;99.90;;;;;;4401126;28;659652;-74
2023/03/22 01:08:08;;;;;;;163.33;58.47;;;5.80;99.90;;;;;;4408765;28;660931;-73
2023/03/22 01:10:57;;;;;;;164.93;59.57;;;5.70;99.90;;;;;;4400870;28;660062;-73
2023/03/22 01:13:44;;;;;;;146.20;54.43;;;5.70;99.90;;;;;;4409896;28;659803;-75
2023/03/22 01:16:31;;;;;;;146.90;54.60;;;5.70;99.90;;;;;;4386659;28;659446;-75
2023/03/22 01:19:19;;;;;;;138.77;52.40;;;5.60;99.90;;;;;;4404632;28;659956;-75
2023/03/22 01:22:06;;;;;;;145.13;54.53;;;5.60;99.90;;;;;;4384008;28;659706;-75
2023/03/22 01:24:53;;;;;;;154.03;57.33;;;5.50;99.90;;;;;;4418147;28;659745;-75
2023/03/22 01:27:42;;;;;;;149.37;55.57;;;5.50;99.90;;;;;;4394077;28;659824;-75
2023/03/22 01:30:30;;;;;;;135.60;52.27;;;5.40;99.90;;;;;;4407882;28;660702;-74
2023/03/22 01:33:17;;;;;;;141.40;51.60;;;5.40;99.90;;;;;;4391193;28;660136;-75
2023/03/22 01:36:05;;;;;;;155.50;51.37;;;5.20;99.90;;;;;;4420481;28;659703;-75
2023/03/22 01:38:52;;;;;;;145.03;51.63;;;5.10;99.90;;;;;;4387582;28;660882;-75
2023/03/22 01:41:40;;;;;;;153.03;52.50;;;5.10;99.90;;;;;;4420694;28;659345;-75
2023/03/22 01:44:30;;;;;;;143.50;49.40;;;5.00;99.90;;;;;;4394144;28;661059;-75
2023/03/22 01:47:17;;;;;;;153.57;50.97;;;5.00;99.90;;;;;;4400301;28;660633;-74
2023/03/22 01:50:06;;;;;;;134.97;48.87;;;4.90;99.90;;;;;;4423942;28;660290;-73
2023/03/22 01:52:54;;;;;;;125.30;50.10;;;4.90;99.90;;;;;;4424960;28;660205;-75
2023/03/22 01:55:41;;;;;;;135.87;52.53;;;4.80;99.90;;;;;;4419103;28;659438;-74
2023/03/22 01:58:28;;;;;;;146.23;52.63;;;4.80;99.90;;;;;;4434509;28;659788;-75
2023/03/22 02:01:17;;;;;;;210.20;53.10;;;4.80;99.90;;;;;;4414354;28;659805;-74
2023/03/22 02:04:06;;;;;;;462.67;53.33;;;4.90;99.90;;;;;;4429376;28;659683;-75
2023/03/22 02:06:54;;;;;;;484.50;52.03;;;5.10;99.90;;;;;;4406708;28;659689;-73
2023/03/22 02:09:42;;;;;;;485.55;55.58;;;5.20;99.90;;;;;;4407417;28;660191;-74
2023/03/22 02:12:31;;;;;;;585.67;56.70;;;5.30;99.90;;;;;;4430873;28;659726;-75
2023/03/22 02:15:21;;;;;;;833.17;59.50;;;5.40;99.90;;;;;;4406591;28;660054;-75
2023/03/22 02:18:21;;;;;;;651.13;64.53;;;5.50;99.90;;;;;;4420236;28;660036;-75
2023/03/22 02:21:35;;;;;;;558.23;58.00;;;5.60;99.90;;;;;;4409418;28;660053;-74
2023/03/22 02:24:44;;;;;;;646.23;62.30;;;5.60;99.90;;;;;;4379034;28;659990;-74
2023/03/22 02:27:53;;;;;;;576.57;53.33;;;5.60;99.90;;;;;;4408334;28;659614;-75
2023/03/22 02:30:54;;;;;;;448.70;53.27;;;5.60;99.90;;;;;;4395110;28;660363;-74
2023/03/22 02:34:13;;;;;;;425.73;52.37;;;5.60;99.90;;;;;;4418774;28;659815;-76
2023/03/22 02:37:21;;;;;;;479.58;51.05;;;5.60;99.90;;;;;;4397671;28;659539;-74
2023/03/22 02:40:12;;;;;;;312.80;48.90;;;5.70;99.90;;;;;;4404264;28;659861;-76
2023/03/22 02:43:01;;;;;;;223.63;47.40;;;5.60;99.90;;;;;;4409392;28;659664;-75
2023/03/22 02:45:50;;;;;;;413.23;49.27;;;5.60;99.90;;;;;;4413253;28;660720;-75
2023/03/22 02:48:40;;;;;;;478.87;50.87;;;5.70;99.90;;;;;;4411038;28;660462;-75
2023/03/22 02:51:31;;;;;;;441.97;49.73;;;5.70;99.90;;;;;;4409497;28;659693;-76
2023/03/22 02:54:20;;;;;;;438.40;48.43;;;5.60;99.90;;;;;;4399940;28;660085;-75
2023/03/22 02:57:11;;;;;;;418.63;45.47;;;5.70;99.90;;;;;;4406292;28;659700;-74
2023/03/22 02:59:58;;;;;;;335.33;45.42;;;5.70;99.90;;;;;;4405042;28;660151;-75
2023/03/22 03:02:48;;;;;;;546.97;47.37;;;5.70;99.90;;;;;;4408084;28;660309;-75
2023/03/22 03:05:35;;;;;;;493.73;47.60;;;5.70;99.90;;;;;;4418566;28;659628;-74
2023/03/22 03:08:23;;;;;;;381.37;46.47;;;5.70;99.90;;;;;;4433596;28;660533;-75
2023/03/22 03:11:11;;;;;;;336.30;43.60;;;5.70;99.90;;;;;;4415988;28;661402;-74
2023/03/22 03:13:59;;;;;;;428.33;47.27;;;5.70;99.90;;;;;;4427019;28;661030;-75
2023/03/22 03:16:47;;;;;;;460.97;48.63;;;5.60;99.90;;;;;;4407738;28;660661;-75
2023/03/22 03:19:38;;;;;;;344.53;44.93;;;5.60;99.90;;;;;;4431826;28;659338;-75
2023/03/22 03:22:32;;;;;;;289.23;42.80;;;5.60;99.90;;;;;;4395976;28;659898;-74
2023/03/22 03:25:23;;;;;;;297.07;44.40;;;5.60;99.90;;;;;;4411436;28;659688;-75
2023/03/22 03:28:12;;;;;;;337.97;42.40;;;5.60;99.90;;;;;;4390587;28;660345;-75
2023/03/22 03:31:06;;;;;;;265.80;40.70;;;5.60;99.90;;;;;;4432204;28;660241;-75
2023/03/22 03:33:57;;;;;;;328.70;43.80;;;5.60;99.90;;;;;;4411340;28;660357;-76
2023/03/22 03:36:49;;;;;;;312.77;42.07;;;5.60;99.90;;;;;;4422304;28;659454;-73
2023/03/22 03:39:40;;;;;;;345.33;42.30;;;5.60;99.90;;;;;;4407048;28;660126;-75
2023/03/22 03:42:27;;;;;;;276.10;42.07;;;5.60;99.90;;;;;;4399974;28;660034;-75
2023/03/22 03:45:16;;;;;;;292.37;41.60;;;5.50;99.90;;;;;;4438130;28;659903;-74
2023/03/22 03:48:06;;;;;;;282.53;40.43;;;5.50;99.90;;;;;;4431456;28;660125;-76
2023/03/22 03:50:54;;;;;;;382.33;41.37;;;5.50;99.90;;;;;;4401966;28;660411;-75
2023/03/22 03:53:41;;;;;;;208.40;39.60;;;5.50;99.90;;;;;;4396234;28;659551;-76
2023/03/22 03:56:28;;;;;;;269.17;37.87;;;5.50;99.90;;;;;;4433553;28;660760;-76
2023/03/22 03:59:16;;;;;;;276.07;38.63;;;5.40;99.90;;;;;;4408637;28;659418;-75
2023/03/22 04:02:04;;;;;;;234.93;41.57;;;5.40;99.90;;;;;;4437597;28;660597;-76
2023/03/22 04:04:53;;;;;;;178.70;36.50;;;5.40;99.90;;;;;;4406233;28;660316;-75
2023/03/22 04:07:40;;;;;;;133.63;36.93;;;5.40;99.90;;;;;;4411624;28;659822;-74
2023/03/22 04:10:28;;;;;;;143.50;37.57;;;5.30;99.90;;;;;;4430122;28;660795;-75
2023/03/22 04:13:15;;;;;;;255.07;37.40;;;5.30;99.90;;;;;;4420185;28;659912;-74
2023/03/22 04:16:03;;;;;;;151.80;35.80;;;5.20;99.90;;;;;;4428969;28;660695;-75
2023/03/22 04:18:50;;;;;;;134.33;34.57;;;5.20;99.90;;;;;;4430101;28;659510;-75
2023/03/22 04:21:39;;;;;;;120.87;36.63;;;5.20;99.90;;;;;;4434052;28;660783;-75
2023/03/22 04:24:26;;;;;;;115.33;35.67;;;5.20;99.90;;;;;;4409850;28;659568;-75
2023/03/22 04:27:14;;;;;;;848.73;47.03;;;5.20;99.90;;;;;;4425559;28;660149;-75
2023/03/22 04:30:01;;;;;;;152.33;34.37;;;5.20;99.90;;;;;;4406014;28;659784;-74
2023/03/22 04:32:49;;;;;;;161.30;34.13;;;5.20;99.90;;;;;;4430868;28;660812;-75
2023/03/22 04:35:36;;;;;;;432.10;38.03;;;5.10;99.90;;;;;;4408975;28;659902;-75
2023/03/22 04:38:25;;;;;;;327.83;36.57;;;5.10;99.90;;;;;;4426979;28;659822;-75
2023/03/22 04:41:12;;;;;;;129.93;34.97;;;5.10;99.90;;;;;;4412396;28;660089;-75
2023/03/22 04:44:01;;;;;;;207.90;40.70;;;5.20;99.90;;;;;;4431405;28;660030;-75
2023/03/22 04:46:49;;;;;;;137.87;37.57;;;5.20;99.90;;;;;;4412216;28;659806;-76
2023/03/22 04:49:36;;;;;;;145.77;39.00;;;5.20;99.90;;;;;;4415413;28;659913;-74
2023/03/22 04:52:23;;;;;;;117.77;44.10;;;5.20;99.90;;;;;;4440287;28;659445;-75
2023/03/22 04:55:12;;;;;;;132.73;49.47;;;5.20;99.90;;;;;;4419645;28;660266;-74
2023/03/22 04:57:59;;;;;;;207.30;42.60;;;5.20;99.90;;;;;;4443265;28;659938;-75
2023/03/22 05:00:47;;;;;;;118.47;31.47;;;5.30;99.90;;;;;;4414709;28;659645;-75
2023/03/22 05:03:35;;;;;;;141.67;50.97;;;5.30;99.90;;;;;;4436716;28;659402;-76
2023/03/22 05:06:23;;;;;;;153.13;53.10;;;5.40;99.90;;;;;;4414739;28;660399;-76
2023/03/22 05:09:10;;;;;;;148.52;39.35;;;5.50;99.90;;;;;;4416283;28;660642;-75
2023/03/22 05:11:59;;;;;;;135.07;45.00;;;5.50;99.90;;;;;;4422020;28;660125;-75
2023/03/22 05:14:46;;;;;;;105.30;38.33;;;5.60;99.90;;;;;;4413254;28;659609;-75
2023/03/22 05:17:34;;;;;;;105.67;38.53;;;5.60;99.90;;;;;;4433507;28;659626;-75
2023/03/22 05:20:21;;;;;;;92.77;35.37;;;5.70;99.90;;;;;;4407024;28;659601;-76
2023/03/22 05:23:09;;;;;;;79.47;33.40;;;5.80;99.90;;;;;;4442268;28;658910;-76
2023/03/22 05:25:57;;;;;;;81.20;34.27;;;5.90;99.90;;;;;;4418488;28;658641;-75
2023/03/22 05:28:47;;;;;;;81.00;34.07;;;6.00;99.90;;;;;;4435492;28;658543;-75
2023/03/22 05:31:34;;;;;;;81.10;33.30;;;6.10;99.90;;;;;;4433492;28;658315;-76
2023/03/22 05:34:21;;;;;;;85.88;35.15;;;6.20;99.90;;;;;;4420909;28;658746;-75
2023/03/22 05:37:09;;;;;;;94.47;36.63;;;6.30;99.90;;;;;;4428268;28;658257;-77
2023/03/22 05:39:56;;;;;;;85.83;34.97;;;6.40;99.90;;;;;;4408366;28;658914;-75
2023/03/22 05:42:44;;;;;;;93.87;37.50;;;6.50;99.90;;;;;;4439767;28;659957;-75
2023/03/22 05:45:32;;;;;;;80.93;35.57;;;6.70;99.90;;;;;;4410522;28;658673;-75
2023/03/22 05:48:20;;;;;;;85.27;36.17;;;6.80;99.90;;;;;;4425788;28;658653;-75
2023/03/22 05:51:08;;;;;;;89.87;37.93;;;6.90;99.90;;;;;;4438506;28;659940;-76
2023/03/22 05:53:55;;;;;;;83.00;36.17;;;7.00;99.90;;;;;;4414448;28;658408;-74
2023/03/22 05:56:43;;;;;;;90.97;39.07;;;7.10;99.90;;;;;;4426075;28;658865;-76
2023/03/22 05:59:30;;;;;;;87.03;37.37;;;7.20;99.90;;;;;;4430385;28;660114;-75
2023/03/22 06:02:19;;;;;;;87.37;37.80;;;7.20;99.90;;;;;;4432584;28;659162;-76
2023/03/22 06:05:08;;;;;;;81.70;35.57;;;7.20;99.90;;;;;;4417930;28;658767;-76
2023/03/22 06:07:55;;;;;;;72.75;33.92;;;7.30;99.90;;;;;;4416300;28;658593;-75
2023/03/22 06:10:43;;;;;;;73.80;33.30;;;7.40;99.90;;;;;;4435665;28;659988;-76
2023/03/22 06:13:30;;;;;;;80.50;34.17;;;7.40;99.90;;;;;;4420434;28;658565;-75
2023/03/22 06:16:18;;;;;;;79.90;36.37;;;7.40;99.90;;;;;;4431128;28;661047;-76
2023/03/22 06:19:07;;;;;;;89.00;38.70;;;7.50;99.90;;;;;;4424289;28;658669;-75
2023/03/22 06:21:54;;;;;;;146.20;65.00;;;7.50;99.90;;;;;;4427597;28;658076;-74
2023/03/22 06:24:41;;;;;;;149.17;64.77;;;7.50;99.90;;;;;;4407319;28;660211;-75
2023/03/22 06:27:29;;;;;;;81.33;37.33;;;7.60;99.90;;;;;;4435654;28;659951;-76
2023/03/22 06:30:17;;;;;;;109.20;44.33;;;7.70;99.90;;;;;;4395684;28;659131;-75
2023/03/22 06:33:05;;;;;;;97.87;39.97;;;7.90;99.90;;;;;;4428989;28;659774;-75
2023/03/22 06:35:54;;;;;;;81.97;36.83;;;7.90;99.90;;;;;;4422065;28;659870;-76
2023/03/22 06:38:41;;;;;;;81.83;38.00;;;8.00;99.90;;;;;;4415801;28;659454;-74
2023/03/22 06:41:29;;;;;;;75.20;34.93;;;8.10;99.90;;;;;;4423970;28;659930;-76
2023/03/22 06:44:16;;;;;;;74.67;34.40;;;8.30;99.90;;;;;;4409030;28;658145;-76
2023/03/22 06:47:03;;;;;;;124.63;49.77;;;8.40;99.90;;;;;;4428889;28;659627;-76
2023/03/22 06:49:51;;;;;;;64.00;31.37;;;8.40;99.90;;;;;;4394824;28;659936;-75
2023/03/22 06:52:39;;;;;;;78.47;33.77;;;8.50;99.90;;;;;;4428945;28;659152;-75
2023/03/22 06:55:27;;;;;;;69.53;32.60;;;8.60;99.90;;;;;;4405348;28;658543;-75
2023/03/22 06:58:14;;;;;;;66.43;31.80;;;8.60;99.90;;;;;;4411002;28;658645;-75
2023/03/22 07:01:01;;;;;;;86.97;40.80;;;8.90;99.90;;;;;;4403973;28;658583;-75
2023/03/22 07:03:49;;;;;;;66.27;32.50;;;9.00;99.90;;;;;;4421996;28;659207;-75
2023/03/22 07:06:36;;;;;;;56.47;28.10;;;9.20;99.90;;;;;;4405346;28;659256;-75
2023/03/22 07:09:25;;;;;;;57.93;27.97;;;9.30;99.90;;;;;;4421891;28;660804;-75
2023/03/22 07:12:13;;;;;;;57.73;27.50;;;9.40;99.90;;;;;;4404894;28;659996;-74
2023/03/22 07:15:00;;;;;;;56.93;27.43;;;9.40;99.90;;;;;;4412834;28;659446;-74
2023/03/22 07:17:48;;;;;;;57.43;27.83;;;9.30;99.90;;;;;;4415997;28;659826;-74
2023/03/22 07:20:39;;;;;;;55.20;26.67;;;9.30;99.90;;;;;;4410930;28;658225;-74
2023/03/22 07:23:26;;;;;;;59.83;29.53;;;9.40;99.90;;;;;;4403462;28;658539;-75
2023/03/22 07:26:15;;;;;;;54.03;27.87;;;9.40;99.90;;;;;;4414858;28;659110;-74
2023/03/22 07:29:02;;;;;;;55.30;27.97;;;9.40;99.90;;;;;;4395763;28;659195;-75
2023/03/22 07:31:49;;;;;;;51.70;27.40;;;9.60;99.90;;;;;;4406899;28;658679;-74
2023/03/22 07:34:37;;;;;;;53.87;28.00;;;9.70;99.90;;;;;;4403960;28;658866;-74
2023/03/22 07:37:24;;;;;;;53.87;26.20;;;9.70;99.90;;;;;;4429360;28;658710;-75
2023/03/22 07:40:12;;;;;;;54.83;25.97;;;9.80;99.90;;;;;;4404461;28;658973;-74
2023/03/22 07:43:02;;;;;;;57.07;26.63;;;9.90;99.90;;;;;;4425564;28;658552;-74
2023/03/22 07:45:49;;;;;;;54.23;26.67;;;9.90;99.90;;;;;;4417996;28;658079;-73
2023/03/22 07:48:41;;;;;;;44.00;24.17;;;9.90;99.90;;;;;;4410034;28;659069;-75
2023/03/22 07:51:29;;;;;;;44.03;23.10;;;9.90;99.90;;;;;;4403568;28;658546;-76
2023/03/22 07:54:16;;;;;;;58.97;28.03;;;9.80;99.90;;;;;;4411217;28;658594;-75
2023/03/22 07:57:04;;;;;;;47.57;25.00;;;9.60;99.90;;;;;;4427122;28;658579;-73
2023/03/22 07:59:52;;;;;;;92.50;34.97;;;9.60;99.90;;;;;;4412144;28;658480;-73
2023/03/22 08:02:44;;;;;;;52.43;26.03;;;9.60;99.90;;;;;;4423235;28;658635;-73
2023/03/22 08:05:31;;;;;;;50.57;24.73;;;9.70;99.90;;;;;;4409002;28;659102;-74
2023/03/22 08:08:19;;;;;;;50.83;23.97;;;9.60;99.90;;;;;;4438211;28;659016;-74
2023/03/22 08:11:07;;;;;;;52.15;24.58;;;9.70;99.90;;;;;;4426068;28;658454;-74
2023/03/22 08:13:55;;;;;;;63.57;28.60;;;9.60;99.90;;;;;;4441195;28;658206;-74
2023/03/22 08:16:44;;;;;;;50.40;25.27;;;9.60;99.90;;;;;;4413623;28;659601;-73
2023/03/22 08:19:32;;;;;;;43.90;22.27;;;9.70;99.90;;;;;;4405367;28;659047;-73
2023/03/22 08:22:24;;;;;;;43.83;21.50;;;9.80;99.90;;;;;;4438573;28;658532;-73
2023/03/22 08:25:13;;;;;;;45.07;22.33;;;9.80;99.90;;;;;;4387142;28;659922;-73
2023/03/22 08:28:01;;;;;;;53.67;25.73;;;9.90;99.90;;;;;;4424557;28;659358;-72
2023/03/22 08:30:48;;;;;;;54.43;26.47;;;10.10;99.90;;;;;;4432910;28;659349;-73
2023/03/22 08:33:37;;;;;;;65.37;31.17;;;10.40;99.90;;;;;;4415650;28;660195;-73
2023/03/22 08:36:24;;;;;;;64.23;29.97;;;10.60;99.90;;;;;;4442690;28;659724;-73
2023/03/22 08:39:12;;;;;;;62.93;28.63;;;10.90;99.90;;;;;;4419915;28;660171;-72
2023/03/22 08:41:59;;;;;;;50.63;25.40;;;11.10;99.90;;;;;;4435176;28;659591;-73
2023/03/22 08:44:47;;;;;;;38.67;20.77;;;11.40;99.90;;;;;;4418910;28;660349;-73
2023/03/22 08:47:34;;;;;;;50.00;25.07;;;11.80;99.90;;;;;;4422383;28;659394;-74
2023/03/22 08:50:23;;;;;;;32.47;17.63;;;12.00;99.90;;;;;;4416096;28;659958;-73
2023/03/22 08:53:12;;;;;;;31.53;15.60;;;12.50;99.90;;;;;;4417716;28;659567;-73
2023/03/22 08:56:00;;;;;;;20.47;11.30;;;12.60;99.90;;;;;;4431528;28;659329;-74
2023/03/22 08:58:47;;;;;;;22.47;12.43;;;12.90;99.90;;;;;;4407483;28;660331;-74
2023/03/22 09:01:35;;;;;;;22.20;11.90;;;13.20;99.90;;;;;;4429987;28;659697;-73
2023/03/22 09:04:23;;;;;;;20.40;11.37;;;13.40;99.90;;;;;;4427215;28;660658;-74
2023/03/22 09:07:12;;;;;;;20.17;11.30;;;13.50;99.90;;;;;;4415008;28;659456;-73
2023/03/22 09:09:59;;;;;;;18.47;9.70;;;13.60;99.90;;;;;;4429503;28;659780;-74
2023/03/22 09:12:46;;;;;;;25.30;13.77;;;13.90;99.90;;;;;;4419668;28;658845;-74
2023/03/22 09:15:34;;;;;;;23.30;12.20;;;13.80;99.90;;;;;;4411824;28;659992;-73
2023/03/22 09:18:23;;;;;;;27.37;14.83;;;13.80;99.90;;;;;;4406382;28;659806;-74
2023/03/22 09:21:11;;;;;;;32.37;16.67;;;13.80;99.90;;;;;;4426764;28;659610;-73
2023/03/22 09:24:00;;;;;;;28.90;15.40;;;13.80;99.90;;;;;;4433051;28;659628;-73
2023/03/22 09:26:47;;;;;;;22.67;11.73;;;13.90;99.90;;;;;;4409025;28;661064;-73
2023/03/22 09:29:35;;;;;;;28.37;15.77;;;14.00;99.90;;;;;;4423765;28;660892;-73
2023/03/22 09:32:22;;;;;;;25.80;14.47;;;14.20;99.90;;;;;;4411567;28;662655;-73
2023/03/22 09:35:09;;;;;;;29.27;16.33;;;14.30;99.90;;;;;;4424002;28;659769;-72
2023/03/22 09:37:58;;;;;;;19.87;11.03;;;14.20;99.90;;;;;;4407984;28;659463;-73
2023/03/22 09:40:52;;;;;;;24.97;13.53;;;14.20;99.90;;;;;;4409660;28;659486;-73
2023/03/22 09:43:41;;;;;;;23.10;13.40;;;14.20;99.90;;;;;;4402919;28;659692;-73
2023/03/22 09:46:30;;;;;;;28.10;15.80;;;14.40;99.90;;;;;;4418871;28;660519;-73
2023/03/22 09:49:19;;;;;;;25.70;13.97;;;14.50;99.90;;;;;;4413747;28;659799;-73
2023/03/22 09:52:06;;;;;;;27.60;15.20;;;14.20;99.90;;;;;;4418850;28;660351;-73
2023/03/22 09:54:54;;;;;;;30.33;16.40;;;14.20;99.90;;;;;;4430878;28;660045;-73
2023/03/22 09:57:42;;;;;;;35.47;18.30;;;14.10;99.90;;;;;;4419950;28;659233;-73
2023/03/22 10:00:37;;;;;;;35.27;18.50;;;14.10;99.90;;;;;;4426501;28;659792;-73
2023/03/22 10:03:31;;;;;;;41.97;18.27;;;14.10;99.90;;;;;;4416524;28;659848;-73
2023/03/22 10:06:19;;;;;;;35.40;18.73;;;14.40;99.90;;;;;;4404854;28;660420;-74
2023/03/22 10:09:09;;;;;;;33.63;18.45;;;14.40;99.90;;;;;;4408306;28;660534;-73
2023/03/22 10:11:59;;;;;;;35.13;18.97;;;14.50;99.90;;;;;;4415462;28;659768;-73
2023/03/22 10:14:49;;;;;;;33.93;18.83;;;14.60;99.90;;;;;;4421056;28;659704;-73
2023/03/22 10:17:37;;;;;;;32.40;17.63;;;14.60;99.90;;;;;;4417042;28;660470;-72
2023/03/22 10:20:30;;;;;;;32.83;17.97;;;14.70;99.90;;;;;;4442992;28;660114;-73
2023/03/22 10:23:19;;;;;;;32.23;18.57;;;14.60;99.90;;;;;;4409490;28;660001;-72
2023/03/22 10:26:07;;;;;;;31.33;17.53;;;14.10;99.90;;;;;;4406671;28;660803;-72
2023/03/22 10:28:58;;;;;;;35.73;19.13;;;14.40;99.90;;;;;;4423275;28;659562;-72
2023/03/22 10:31:47;;;;;;;33.73;15.70;;;14.60;99.90;;;;;;4388327;28;659603;-72
2023/03/22 10:34:34;;;;;;;28.10;15.07;;;14.40;99.90;;;;;;4435579;28;659306;-72
2023/03/22 10:37:23;;;;;;;32.73;16.87;;;13.80;99.90;;;;;;4401538;28;659551;-72
2023/03/22 10:40:14;;;;;;;30.93;16.57;;;14.10;99.90;;;;;;4413442;28;659915;-72
2023/03/22 10:43:06;;;;;;;31.30;15.83;;;14.40;99.90;;;;;;4404072;28;660157;-72
2023/03/22 10:45:53;;;;;;;23.57;12.60;;;14.90;99.90;;;;;;4416932;28;659957;-73
2023/03/22 10:48:43;;;;;;;24.60;12.87;;;14.80;99.90;;;;;;4413797;28;659806;-73
2023/03/22 10:51:32;;;;;;;21.37;11.83;;;14.90;99.90;;;;;;4412668;28;660200;-74
2023/03/22 10:54:20;;;;;;;22.57;12.23;;;14.50;99.90;;;;;;4436559;28;659604;-73
2023/03/22 10:57:07;;;;;;;22.27;12.07;;;14.80;99.90;;;;;;4413661;28;660036;-73
2023/03/22 10:59:55;;;;;;;24.13;11.10;;;14.80;99.90;;;;;;4439380;28;659498;-73
2023/03/22 11:02:47;;;;;;;20.17;11.50;;;15.10;99.90;;;;;;4405462;28;660267;-74
2023/03/22 11:05:35;;;;;;;20.47;10.50;;;15.10;99.90;;;;;;4401791;28;659495;-74
2023/03/22 11:08:23;;;;;;;19.40;10.70;;;15.00;99.90;;;;;;4422128;28;659720;-72
2023/03/22 11:11:20;;;;;;;20.00;11.07;;;15.30;99.90;;;;;;4408992;28;659275;-73
2023/03/22 11:14:12;;;;;;;17.90;10.13;;;15.30;99.90;;;;;;4391435;28;659711;-75
2023/03/22 11:17:00;;;;;;;19.53;10.60;;;15.70;99.90;;;;;;4417793;28;659745;-73
2023/03/22 11:19:51;;;;;;;20.07;10.97;;;15.90;99.90;;;;;;4403226;28;660267;-73
2023/03/22 11:22:40;;;;;;;19.43;10.70;;;16.60;99.90;;;;;;4401144;28;659533;-76
2023/03/22 11:25:29;;;;;;;17.73;9.57;;;17.20;99.90;;;;;;4408582;28;660436;-74
2023/03/22 11:28:17;;;;;;;17.10;9.47;;;16.70;96.90;;;;;;4412128;28;661100;-81
2023/03/22 11:31:07;;;;;;;16.17;8.43;;;16.30;94.40;;;;;;4432513;28;658738;-73
2023/03/22 11:33:56;;;;;;;14.37;8.27;;;16.10;96.50;;;;;;4434807;28;659374;-72
2023/03/22 11:36:44;;;;;;;16.33;8.60;;;16.00;97.30;;;;;;4414818;28;658275;-74
2023/03/22 11:39:32;;;;;;;15.33;9.50;;;15.80;98.80;;;;;;4409710;28;658579;-72
2023/03/22 11:42:21;;;;;;;14.27;8.97;;;16.20;97.80;;;;;;4436514;28;658783;-72
2023/03/22 11:45:10;;;;;;;15.83;9.83;;;15.60;97.50;;;;;;4440808;28;658832;-75
2023/03/22 11:48:01;;;;;;;18.83;10.13;;;15.40;98.70;;;;;;4420120;28;659663;-73
2023/03/22 11:50:49;;;;;;;16.40;10.07;;;15.30;99.90;;;;;;4401007;28;659494;-72
2023/03/22 11:53:38;;;;;;;15.88;9.73;;;15.40;99.90;;;;;;4403317;28;659885;-74
2023/03/22 11:56:29;;;;;;;22.47;12.33;;;15.70;98.90;;;;;;4405037;28;658819;-72
2023/03/22 11:59:21;;;;;;;19.87;10.67;;;15.40;99.90;;;;;;4409487;28;659797;-72
2023/03/22 12:02:14;;;;;;;20.90;11.93;;;15.40;99.90;;;;;;4402471;28;660201;-72
2023/03/22 12:05:04;;;;;;;20.40;11.17;;;15.50;99.90;;;;;;4399237;28;659725;-72
2023/03/22 12:07:55;;;;;;;24.20;11.20;;;15.80;99.90;;;;;;4414795;28;659688;-72
2023/03/22 12:10:43;;;;;;;18.63;10.37;;;16.30;99.90;;;;;;4406072;28;661169;-73
2023/03/22 12:13:36;;;;;;;18.23;11.27;;;16.80;99.90;;;;;;4414874;28;659551;-72
2023/03/22 12:16:24;;;;;;;19.27;10.80;;;17.00;99.90;;;;;;4413605;28;660229;-72
2023/03/22 12:19:17;;;;;;;14.90;9.43;;;17.60;97.90;;;;;;4408761;28;659754;-73
2023/03/22 12:22:11;;;;;;;18.90;10.53;;;17.70;92.00;;;;;;4410397;28;658733;-74
2023/03/22 12:25:00;;;;;;;18.27;10.50;;;17.50;93.90;;;;;;4408694;28;659648;-73
2023/03/22 12:27:48;;;;;;;18.57;9.93;;;17.90;94.10;;;;;;4414193;28;659822;-72
2023/03/22 12:30:40;;;;;;;16.63;9.70;;;17.40;92.50;;;;;;4407568;28;659304;-72
2023/03/22 12:33:27;;;;;;;19.63;10.83;;;17.80;91.50;;;;;;4417475;28;658702;-72
2023/03/22 12:36:16;;;;;;;21.00;10.43;;;17.60;94.10;;;;;;4431087;28;660246;-72
2023/03/22 12:39:04;;;;;;;24.40;11.80;;;17.90;91.40;;;;;;4436159;28;660544;-72
2023/03/22 12:41:52;;;;;;;19.20;10.20;;;18.40;92.30;;;;;;4410667;28;659791;-71
2023/03/22 12:44:42;;;;;;;15.03;9.37;;;18.10;90.10;;;;;;4430878;28;659293;-71
2023/03/22 12:47:33;;;;;;;18.70;9.67;;;17.30;88.70;;;;;;4406431;28;658831;-72
2023/03/22 12:50:21;;;;;;;17.63;9.27;;;17.30;91.40;;;;;;4417772;28;658766;-72
2023/03/22 12:53:11;;;;;;;13.63;8.65;;;16.70;93.00;;;;;;4426824;28;660409;-71
2023/03/22 12:55:58;;;;;;;17.17;9.90;;;16.80;93.30;;;;;;4414618;28;659425;-72
2023/03/22 12:58:47;;;;;;;18.00;8.90;;;17.30;96.40;;;;;;4414882;28;658792;-71
2023/03/22 13:01:36;;;;;;;12.10;6.53;;;18.10;92.30;;;;;;4439170;28;657905;-72
2023/03/22 13:04:31;;;;;;;12.53;6.70;;;18.20;88.30;;;;;;4404715;28;659740;-72
2023/03/22 13:07:33;;;;;;;18.33;7.00;;;18.00;87.00;;;;;;4416195;28;659123;-73
2023/03/22 13:11:03;;;;;;;16.57;7.53;;;18.00;87.80;;;;;;4399843;28;659154;-71
2023/03/22 13:13:50;;;;;;;14.27;7.93;;;17.40;86.30;;;;;;4397409;28;658594;-72
2023/03/22 13:16:52;;;;;;;13.93;7.60;;;17.80;86.20;;;;;;4430420;28;659742;-71
2023/03/22 13:19:40;;;;;;;12.93;7.20;;;17.60;87.40;;;;;;4410484;28;658204;-70
2023/03/22 13:22:28;;;;;;;15.17;7.40;;;17.30;87.50;;;;;;4410236;28;659138;-70
2023/03/22 13:25:28;;;;;;;16.57;7.67;;;17.60;87.00;;;;;;4416015;28;659258;-71
2023/03/22 13:28:25;;;;;;;18.70;7.50;;;17.80;88.50;;;;;;4395376;28;659605;-71
2023/03/22 13:31:20;;;;;;;16.23;8.33;;;17.40;89.40;;;;;;4378349;28;659119;-72
2023/03/22 13:34:16;;;;;;;19.60;8.63;;;17.80;90.50;;;;;;4413551;28;658665;-72
2023/03/22 13:37:08;;;;;;;15.73;7.27;;;18.10;88.50;;;;;;4405726;28;659211;-72
2023/03/22 13:40:01;;;;;;;13.23;7.57;;;18.10;82.50;;;;;;4391160;28;659248;-71
2023/03/22 13:42:48;;;;;;;11.43;6.43;;;18.20;87.70;;;;;;4409233;28;659540;-76
2023/03/22 13:45:36;;;;;;;8.93;5.90;;;18.40;79.70;;;;;;4409577;28;658972;-70
2023/03/22 13:48:29;;;;;;;8.60;5.80;;;17.60;81.30;;;;;;4438613;28;658380;-73
2023/03/22 13:51:18;;;;;;;10.13;5.40;;;17.30;84.00;;;;;;4408277;28;657499;-71
2023/03/22 13:54:10;;;;;;;15.00;6.20;;;17.40;85.00;;;;;;4422581;28;659120;-71
2023/03/22 13:56:59;;;;;;;9.57;5.33;;;17.90;83.50;;;;;;4405391;28;660105;-71
2023/03/22 14:00:00;;;;;;;8.30;5.17;;;18.20;83.30;;;;;;4417580;28;657737;-71
2023/03/22 14:02:47;;;;;;;8.47;4.73;;;18.40;78.80;;;;;;4408441;28;657861;-71
2023/03/22 14:05:36;;;;;;;8.47;5.00;;;18.70;79.60;;;;;;4429431;28;657951;-72
2023/03/22 14:08:27;;;;;;;10.30;4.70;;;19.20;72.00;;;;;;4436300;28;658827;-71
2023/03/22 14:11:21;;;;;;;6.73;4.47;;;18.80;71.90;;;;;;4410025;28;659566;-74